Alma, CO (80420)

9:35 AM MDT on May 26, 2017 (GMT -0600)
Beaver Ridge | | Change Station

Elev 10354 ft 39.24 °N, 106.02 °W | Updated 20 seconds ago

Partly Cloudy
Partly Cloudy
49.0 °F
Feels Like 49 °F
N
3.0
Wind Variable Wind from South

Today
High -- | Low -- °F
--% Chance of Precip.
Yesterday
High -- | Low -- °F
Precip. -- in
Pressure 30.20 in
Visibility 10.0 miles
Clouds Clear
Windchill 49 °F
Dew Point 36 °F
Humidity 61%
Rainfall 0.00 in
Snow Depth Not available.
5:42 AM 8:20 PM
New Moon, 1% visible
METAR KCCU 261515Z AUTO 19015G20KT 10SM CLR 04/M03 A3020 RMK AO2 P0002
Pressure 30.20 in
Visibility 10.0 miles
Clouds Clear
Windchill 49 °F
Dew Point 36 °F
Humidity 61%
Rainfall 0.00 in
Snow Depth Not available.
5:42 AM 8:20 PM
New Moon, 1% visible
METAR KCCU 261515Z AUTO 19015G20KT 10SM CLR 04/M03 A3020 RMK AO2 P0002

Get Severe Weather Alerts

Thanks for signing up!

Be on the lookout for a verification email in your inbox.

You'll start receiving the daily forecast at 6 AM.

×

10-Day Weather Forecast

Almanac

Astronomy

May. 26, 2017 Rise Set
Actual Time
Civil Twilight
Nautical Twilight
Astronomical Twilight
Moon
Length of Visible Light
Length of Day
Tomorrow will be .
, % of the Moon is Illuminated

Today's Extremes

State Highs State Lows

Community

WunderPhotos

Category 6

Welcome to Category 6. This is the collective home for Weather Underground's featured writeups by Dr. Jeff Masters (right), Bob Henson (left), Chris Burt, and other regular contributors.

Nearby

Air Quality

  Air Quality AQ Index Pollutant
Not available.

Snow Depth

Station Depth Elevation

Earthquake Activity

City Distance Mag. Time & Date
Minimum magnitude displayed is 2.5.

Coastal Water Temperatures

Place Temperature

Stations

Nearby Weather Stations

Station Location Temp. Windchill Dew Point Humidity Wind Precip. Elev Updated Type
                   

Watches & Warnings

There are currently no watches in effect.